Time;durP1;ratioP1;P1;durP2;ratioP2;P2;SDS_P1;SDS_P2;PMS_P1;PMS_P2;Temp;Humidity;BMP_temperature;BMP_pressure;BME280_temperature;BME280_humidity;BME280_pressure;Samples;Min_cycle;Max_cycle;Signal;HPM_P1;HPM_P2
2022/04/16 00:04:22;;;;;;;8.10;7.30;;;;;;;;;;739034;80;26338;-70
2022/04/16 00:05:25;;;;;;;7.83;7.12;;;;;;;;;;739040;80;26346;-70
2022/04/16 00:06:28;;;;;;;7.80;6.97;;;;;;;;;;739580;80;26355;-71
2022/04/16 00:07:31;;;;;;;9.53;7.45;;;;;;;;;;740153;80;26285;-71
2022/04/16 00:08:34;;;;;;;8.63;7.50;;;;;;;;;;739067;80;26737;-70
2022/04/16 00:13:20;;;;;;;9.43;7.40;;;;;;;;;;749038;79;26187;-71
2022/04/16 00:14:23;;;;;;;7.70;6.90;;;;;;;;;;749061;79;26325;-71
2022/04/16 00:15:27;;;;;;;8.30;7.37;;;;;;;;;;749050;79;26274;-70
2022/04/16 00:16:30;;;;;;;8.15;7.35;;;;;;;;;;748997;79;26749;-70
2022/04/16 00:17:36;;;;;;;8.20;7.10;;;;;;;;;;749079;79;26321;-70
2022/04/16 00:18:39;;;;;;;8.68;7.70;;;;;;;;;;749041;79;26717;-71
2022/04/16 00:19:41;;;;;;;8.98;7.37;;;;;;;;;;749887;79;26794;-74
2022/04/16 00:21:12;;;;;;;6.87;6.22;;;;;;;;;;750259;79;26272;-70
2022/04/16 00:22:15;;;;;;;9.43;7.40;;;;;;;;;;749095;79;26334;-72
2022/04/16 00:23:25;;;;;;;8.48;6.95;;;;;;;;;;749081;79;26312;-70
2022/04/16 00:24:24;;;;;;;6.78;6.08;;;;;;;;;;749005;79;26265;-72
2022/04/16 00:25:27;;;;;;;7.87;6.20;;;;;;;;;;749090;79;26265;-71
2022/04/16 00:26:33;;;;;;;7.20;6.45;;;;;;;;;;749022;79;26316;-71
2022/04/16 00:27:36;;;;;;;8.73;6.70;;;;;;;;;;749016;79;26777;-70
2022/04/16 00:28:40;;;;;;;8.08;6.65;;;;;;;;;;749017;79;26727;-70
2022/04/16 00:29:43;;;;;;;6.90;6.40;;;;;;;;;;749019;79;26323;-71
2022/04/16 00:34:15;;;;;;;10.48;7.03;;;;;;;;;;736694;80;26292;-70
2022/04/16 00:39:02;;;;;;;7.70;6.83;;;;;;;;;;750488;79;26349;-71
2022/04/16 00:43:46;;;;;;;6.60;5.97;;;;;;;;;;761351;78;26177;-71
2022/04/16 00:44:49;;;;;;;7.25;6.55;;;;;;;;;;761392;78;26252;-71
2022/04/16 00:45:55;;;;;;;6.67;5.87;;;;;;;;;;761355;78;26763;-71
2022/04/16 00:46:59;;;;;;;7.47;6.78;;;;;;;;;;761530;78;26252;-71
2022/04/16 00:48:04;;;;;;;7.03;6.33;;;;;;;;;;761752;78;26745;-71
2022/04/16 00:49:06;;;;;;;6.58;5.97;;;;;;;;;;757969;78;26247;-72
2022/04/16 00:52:25;;;;;;;7.87;7.08;;;;;;;;;;761600;78;26235;-71
2022/04/16 00:53:28;;;;;;;7.87;7.08;;;;;;;;;;772252;77;26784;-71
2022/04/16 00:54:32;;;;;;;9.38;7.03;;;;;;;;;;751718;79;26236;-71
2022/04/16 00:55:36;;;;;;;7.15;6.15;;;;;;;;;;750997;79;26244;-73
2022/04/16 00:56:39;;;;;;;9.25;6.50;;;;;;;;;;747616;78;26263;-71
2022/04/16 00:57:42;;;;;;;9.75;6.72;;;;;;;;;;754915;78;26255;-71
2022/04/16 00:58:45;;;;;;;8.60;6.20;;;;;;;;;;771561;77;26303;-72
2022/04/16 00:59:50;;;;;;;7.30;6.65;;;;;;;;;;750462;79;26256;-71
2022/04/16 01:02:42;;;;;;;7.17;6.50;;;;;;;;;;782521;76;26228;-72
2022/04/16 01:03:47;;;;;;;10.72;7.17;;;;;;;;;;799106;74;24629;-70
2022/04/16 01:04:50;;;;;;;8.98;8.08;;;;;;;;;;776742;76;26288;-70
2022/04/16 01:05:55;;;;;;;8.18;7.37;;;;;;;;;;776745;76;26300;-70
2022/04/16 01:06:59;;;;;;;8.43;7.55;;;;;;;;;;766861;77;26249;-71
2022/04/16 01:08:02;;;;;;;8.85;7.50;;;;;;;;;;770029;77;26348;-71
2022/04/16 01:09:05;;;;;;;9.75;7.92;;;;;;;;;;770798;77;26261;-71
2022/04/16 01:13:49;;;;;;;8.53;7.55;;;;;;;;;;781785;76;26152;-72
2022/04/16 01:14:52;;;;;;;8.50;7.75;;;;;;;;;;781681;76;26279;-71
2022/04/16 01:15:55;;;;;;;8.95;7.40;;;;;;;;;;781740;76;26252;-71
2022/04/16 01:16:58;;;;;;;7.80;7.00;;;;;;;;;;781806;76;26223;-71
2022/04/16 01:18:02;;;;;;;7.95;7.15;;;;;;;;;;781720;76;26232;-70
2022/04/16 01:25:35;;;;;;;9.13;8.15;;;;;;;;;;726265;81;26397;-70
2022/04/16 01:26:38;;;;;;;8.80;7.90;;;;;;;;;;752516;79;26673;-71
2022/04/16 01:27:50;;;;;;;9.60;8.65;;;;;;;;;;751326;79;26264;-70
2022/04/16 01:28:53;;;;;;;8.58;7.67;;;;;;;;;;751340;79;26256;-71
2022/04/16 01:35:52;;;;;;;8.55;6.85;;;;;;;;;;772956;77;26159;-70
2022/04/16 01:37:14;;;;;;;8.75;7.60;;;;;;;;;;771930;77;26340;-70
2022/04/16 01:38:20;;;;;;;7.37;6.70;;;;;;;;;;772780;77;26254;-76
2022/04/16 01:44:38;;;;;;;9.83;7.40;;;;;;;;;;774610;76;26199;-72
2022/04/16 01:45:42;;;;;;;8.43;7.47;;;;;;;;;;774505;76;26248;-71
2022/04/16 01:46:45;;;;;;;8.48;7.67;;;;;;;;;;774656;76;26303;-71
2022/04/16 01:47:50;;;;;;;8.40;7.60;;;;;;;;;;774570;76;26295;-74
2022/04/16 01:48:55;;;;;;;7.70;7.03;;;;;;;;;;774661;76;24264;-70
2022/04/16 01:54:00;;;;;;;8.78;7.75;;;;;;;;;;757708;78;26204;-70
2022/04/16 01:55:03;;;;;;;8.13;7.33;;;;;;;;;;757338;78;26809;-70
2022/04/16 01:56:06;;;;;;;9.00;7.40;;;;;;;;;;757400;78;26312;-70
2022/04/16 01:57:09;;;;;;;10.15;8.13;;;;;;;;;;758424;78;26308;-72
2022/04/16 01:58:13;;;;;;;9.48;7.33;;;;;;;;;;758445;78;26326;-71
2022/04/16 01:59:16;;;;;;;7.87;6.90;;;;;;;;;;757346;78;26337;-71
2022/04/16 02:02:47;;;;;;;10.38;7.75;;;;;;;;;;757198;78;26697;-71
2022/04/16 02:03:50;;;;;;;8.98;7.72;;;;;;;;;;763346;77;26247;-71
2022/04/16 02:04:54;;;;;;;8.98;7.95;;;;;;;;;;750171;79;26323;-71
2022/04/16 02:10:07;;;;;;;10.72;8.03;;;;;;;;;;769219;77;26198;-70
2022/04/16 02:13:19;;;;;;;8.48;7.47;;;;;;;;;;754571;78;26219;-70
2022/04/16 02:14:23;;;;;;;11.68;7.55;;;;;;;;;;768950;76;26251;-72
2022/04/16 02:15:26;;;;;;;10.85;7.70;;;;;;;;;;768485;77;26254;-70
2022/04/16 02:16:30;;;;;;;8.33;7.47;;;;;;;;;;763053;77;26289;-73
2022/04/16 02:17:34;;;;;;;11.05;8.35;;;;;;;;;;768398;77;26313;-72
2022/04/16 02:18:38;;;;;;;9.13;7.70;;;;;;;;;;768358;77;26251;-71
2022/04/16 02:21:40;;;;;;;13.10;8.00;;;;;;;;;;745710;79;26281;-72
2022/04/16 02:22:45;;;;;;;12.60;7.90;;;;;;;;;;730315;81;26353;-70
2022/04/16 02:23:50;;;;;;;11.28;7.90;;;;;;;;;;732864;81;26274;-72
2022/04/16 02:24:54;;;;;;;9.60;8.60;;;;;;;;;;726484;81;26292;-72
2022/04/16 02:25:56;;;;;;;9.98;8.15;;;;;;;;;;745858;79;26265;-71
2022/04/16 02:27:01;;;;;;;14.95;7.90;;;;;;;;;;746157;79;26261;-71
2022/04/16 02:28:03;;;;;;;14.33;9.05;;;;;;;;;;746172;79;26726;-71
2022/04/16 02:29:12;;;;;;;10.08;8.33;;;;;;;;;;746138;79;26273;-71
2022/04/16 02:32:24;;;;;;;9.90;7.72;;;;;;;;;;745442;79;26292;-71
2022/04/16 02:33:28;;;;;;;9.95;8.08;;;;;;;;;;777511;76;26228;-70
2022/04/16 02:34:31;;;;;;;11.10;7.47;;;;;;;;;;777548;76;26277;-71
2022/04/16 02:35:34;;;;;;;10.95;7.70;;;;;;;;;;777442;76;26230;-71
2022/04/16 02:36:40;;;;;;;8.73;7.83;;;;;;;;;;777563;76;26295;-71
2022/04/16 02:37:42;;;;;;;8.48;7.70;;;;;;;;;;777547;76;26292;-70
2022/04/16 02:38:51;;;;;;;10.13;8.25;;;;;;;;;;777615;76;26231;-71
2022/04/16 02:42:10;;;;;;;7.87;7.08;;;;;;;;;;777949;76;26130;-76
2022/04/16 02:43:14;;;;;;;8.93;8.03;;;;;;;;;;763875;77;26228;-71
2022/04/16 02:47:08;;;;;;;9.70;7.15;;;;;;;;;;763821;77;26295;-70
2022/04/16 02:48:13;;;;;;;9.03;7.40;;;;;;;;;;763953;77;26245;-71
2022/04/16 02:52:41;;;;;;;11.20;7.17;;;;;;;;;;737709;77;26231;-71
2022/04/16 02:56:00;;;;;;;11.80;7.47;;;;;;;;;;765214;77;26196;-71
2022/04/16 02:57:03;;;;;;;7.53;6.83;;;;;;;;;;784709;75;26256;-70
2022/04/16 02:58:06;;;;;;;14.40;8.38;;;;;;;;;;784815;75;26729;-71
2022/04/16 02:59:09;;;;;;;9.40;7.50;;;;;;;;;;784743;75;26291;-70
2022/04/16 03:03:54;;;;;;;9.68;7.10;;;;;;;;;;752104;79;26226;-71
2022/04/16 03:04:57;;;;;;;11.40;7.37;;;;;;;;;;761663;78;26285;-71
2022/04/16 03:06:01;;;;;;;8.15;6.95;;;;;;;;;;761773;78;26689;-71
2022/04/16 03:07:05;;;;;;;9.58;6.85;;;;;;;;;;761579;78;26309;-72
2022/04/16 03:08:12;;;;;;;9.60;6.90;;;;;;;;;;761596;78;26293;-71
2022/04/16 03:11:28;;;;;;;7.00;6.40;;;;;;;;;;762117;78;26197;-71
2022/04/16 03:12:41;;;;;;;7.62;6.53;;;;;;;;;;748320;79;26257;-71
2022/04/16 03:13:43;;;;;;;7.85;7.05;;;;;;;;;;748364;79;26317;-69
2022/04/16 03:17:33;;;;;;;7.70;7.00;;;;;;;;;;748280;79;26247;-71
2022/04/16 03:18:36;;;;;;;11.15;7.45;;;;;;;;;;748318;79;26270;-70
2022/04/16 03:23:29;;;;;;;7.80;7.00;;;;;;;;;;758659;78;26326;-70
2022/04/16 03:24:33;;;;;;;8.65;7.65;;;;;;;;;;758738;78;26260;-72
2022/04/16 03:25:37;;;;;;;8.35;7.35;;;;;;;;;;758708;78;26264;-70
2022/04/16 03:26:41;;;;;;;7.40;6.67;;;;;;;;;;759237;78;26256;-71
2022/04/16 03:27:46;;;;;;;10.10;7.05;;;;;;;;;;759201;78;26306;-71
2022/04/16 03:28:49;;;;;;;8.00;7.20;;;;;;;;;;759898;78;26256;-73
2022/04/16 03:33:38;;;;;;;8.00;6.62;;;;;;;;;;751883;79;26246;-70
2022/04/16 03:34:41;;;;;;;7.58;6.85;;;;;;;;;;751784;79;26362;-71
2022/04/16 03:35:45;;;;;;;6.95;6.25;;;;;;;;;;752276;79;26241;-71
2022/04/16 03:36:48;;;;;;;7.00;6.40;;;;;;;;;;752098;77;26311;-72
2022/04/16 03:37:52;;;;;;;6.95;6.35;;;;;;;;;;751679;77;26680;-71
2022/04/16 03:38:55;;;;;;;6.75;5.95;;;;;;;;;;751438;79;26320;-71
2022/04/16 03:47:23;;;;;;;7.42;6.05;;;;;;;;;;760989;78;26213;-70
2022/04/16 03:48:25;;;;;;;7.08;5.90;;;;;;;;;;760928;78;26263;-71
2022/04/16 03:53:00;;;;;;;8.83;6.45;;;;;;;;;;770381;77;26122;-71
2022/04/16 04:01:37;;;;;;;10.68;7.30;;;;;;;;;;788052;75;26667;-71
2022/04/16 04:02:41;;;;;;;11.73;6.70;;;;;;;;;;787888;75;26285;-71
2022/04/16 04:03:46;;;;;;;8.90;7.47;;;;;;;;;;788149;75;26297;-71
2022/04/16 04:04:49;;;;;;;7.60;6.90;;;;;;;;;;788274;75;26298;-69
2022/04/16 04:07:49;;;;;;;8.35;7.10;;;;;;;;;;787975;75;26236;-71
2022/04/16 04:08:52;;;;;;;8.80;7.05;;;;;;;;;;759148;78;26778;-70
2022/04/16 04:11:59;;;;;;;7.55;6.45;;;;;;;;;;756595;78;26281;-71
2022/04/16 04:13:01;;;;;;;10.28;6.42;;;;;;;;;;783049;75;26221;-72
2022/04/16 04:14:04;;;;;;;8.85;6.58;;;;;;;;;;783074;76;26285;-71
2022/04/16 04:15:08;;;;;;;8.73;6.97;;;;;;;;;;783028;76;26715;-70
2022/04/16 04:16:11;;;;;;;7.85;6.65;;;;;;;;;;783169;76;26222;-71
2022/04/16 04:17:14;;;;;;;11.88;7.70;;;;;;;;;;783440;76;26227;-71
2022/04/16 04:18:17;;;;;;;7.70;6.92;;;;;;;;;;783258;76;26625;-70
2022/04/16 04:23:01;;;;;;;8.50;6.85;;;;;;;;;;788197;75;26175;-71
2022/04/16 04:24:04;;;;;;;9.25;6.97;;;;;;;;;;788036;75;26309;-71
2022/04/16 04:25:07;;;;;;;9.75;7.22;;;;;;;;;;788100;75;26688;-71
2022/04/16 04:26:10;;;;;;;11.05;7.03;;;;;;;;;;788180;75;26752;-70
2022/04/16 04:27:13;;;;;;;8.40;7.37;;;;;;;;;;788165;75;26278;-72
2022/04/16 04:34:47;;;;;;;11.73;8.88;;;;;;;;;;778287;76;26185;-71
2022/04/16 04:35:51;;;;;;;11.35;8.20;;;;;;;;;;793585;75;26229;-70
2022/04/16 04:36:56;;;;;;;9.73;8.73;;;;;;;;;;793547;75;26713;-71
2022/04/16 04:37:59;;;;;;;13.00;8.60;;;;;;;;;;777510;76;26230;-70
2022/04/16 04:41:36;;;;;;;14.23;9.95;;;;;;;;;;793772;75;26162;-71
2022/04/16 04:42:38;;;;;;;15.83;10.43;;;;;;;;;;794073;75;26713;-70
2022/04/16 04:43:41;;;;;;;18.12;10.85;;;;;;;;;;793613;75;26225;-70
2022/04/16 04:44:45;;;;;;;15.65;11.90;;;;;;;;;;793682;75;26741;-70
2022/04/16 04:45:48;;;;;;;23.12;14.50;;;;;;;;;;793759;75;26674;-70
2022/04/16 04:46:52;;;;;;;25.95;16.32;;;;;;;;;;793915;75;26276;-71
2022/04/16 04:47:56;;;;;;;21.17;13.72;;;;;;;;;;794535;75;26225;-73
2022/04/16 04:52:40;;;;;;;15.60;9.68;;;;;;;;;;793771;75;26614;-72
2022/04/16 04:53:44;;;;;;;18.30;10.53;;;;;;;;;;794204;75;26217;-75
2022/04/16 04:54:47;;;;;;;10.58;9.50;;;;;;;;;;794212;75;26643;-74
2022/04/16 04:55:51;;;;;;;14.80;10.18;;;;;;;;;;794138;75;26275;-72
2022/04/16 04:56:54;;;;;;;16.90;10.40;;;;;;;;;;794316;74;26221;-74
2022/04/16 04:57:59;;;;;;;13.00;10.00;;;;;;;;;;794078;74;26221;-72
2022/04/16 05:01:21;;;;;;;14.03;10.72;;;;;;;;;;776899;76;26203;-71
2022/04/16 05:02:24;;;;;;;17.37;10.60;;;;;;;;;;773823;76;26323;-73
2022/04/16 05:03:30;;;;;;;10.88;9.78;;;;;;;;;;773794;76;26302;-72
2022/04/16 05:04:34;;;;;;;13.15;10.08;;;;;;;;;;773770;76;26771;-71
2022/04/16 05:05:37;;;;;;;13.98;10.60;;;;;;;;;;770597;76;26725;-72
2022/04/16 05:06:40;;;;;;;14.78;10.70;;;;;;;;;;773899;76;26748;-71
2022/04/16 05:07:42;;;;;;;14.18;10.93;;;;;;;;;;771510;77;26323;-72
2022/04/16 05:12:39;;;;;;;13.18;10.00;;;;;;;;;;787917;75;26689;-70
2022/04/16 05:13:42;;;;;;;13.28;11.20;;;;;;;;;;799926;74;26664;-71
2022/04/16 05:14:45;;;;;;;15.88;11.20;;;;;;;;;;799977;74;26228;-71
2022/04/16 05:22:40;;;;;;;13.90;12.18;;;;;;;;;;773379;76;26228;-72
2022/04/16 05:23:43;;;;;;;13.40;11.30;;;;;;;;;;773337;76;26411;-71
2022/04/16 05:24:46;;;;;;;14.33;11.65;;;;;;;;;;773337;76;26234;-70
2022/04/16 05:25:49;;;;;;;14.07;11.93;;;;;;;;;;773233;76;26323;-70
2022/04/16 05:26:51;;;;;;;12.07;10.88;;;;;;;;;;773313;76;26237;-70
2022/04/16 05:27:54;;;;;;;15.78;12.68;;;;;;;;;;773316;76;26695;-68
2022/04/16 05:32:50;;;;;;;19.85;16.57;;;;;;;;;;779963;76;26769;-70
2022/04/16 05:35:14;;;;;;;21.37;13.70;;;;;;;;;;780043;76;26872;-72
2022/04/16 05:36:18;;;;;;;14.50;11.85;;;;;;;;;;780249;76;26388;-70
2022/04/16 05:37:20;;;;;;;13.27;11.80;;;;;;;;;;781216;76;26304;-70
2022/04/16 05:41:52;;;;;;;14.97;11.80;;;;;;;;;;769848;77;26167;-71
2022/04/16 05:42:55;;;;;;;14.07;11.50;;;;;;;;;;769811;77;26490;-71
2022/04/16 05:43:57;;;;;;;12.97;11.53;;;;;;;;;;769884;77;26491;-70
2022/04/16 05:45:01;;;;;;;13.53;11.43;;;;;;;;;;769862;77;26619;-71
2022/04/16 05:46:04;;;;;;;13.17;11.33;;;;;;;;;;769915;77;26522;-71
2022/04/16 05:47:08;;;;;;;13.13;10.83;;;;;;;;;;769858;77;26746;-71
2022/04/16 05:53:26;;;;;;;17.60;11.57;;;;;;;;;;770571;77;26448;-71
2022/04/16 05:54:29;;;;;;;12.33;11.03;;;;;;;;;;770555;77;26941;-72
2022/04/16 05:55:34;;;;;;;15.37;10.70;;;;;;;;;;770567;77;26902;-71
2022/04/16 05:56:37;;;;;;;12.00;10.73;;;;;;;;;;767566;77;26438;-71
2022/04/16 05:57:41;;;;;;;11.77;10.67;;;;;;;;;;761050;78;26873;-71
2022/04/16 06:00:24;;;;;;;11.53;10.27;;;;;;;;;;780378;76;26926;-74
2022/04/16 06:01:27;;;;;;;14.33;10.60;;;;;;;;;;780452;76;26412;-71
2022/04/16 06:02:31;;;;;;;11.33;10.23;;;;;;;;;;780493;76;26471;-72
2022/04/16 06:03:39;;;;;;;11.67;10.23;;;;;;;;;;780352;76;26912;-72
2022/04/16 06:04:43;;;;;;;11.30;10.00;;;;;;;;;;780562;76;26517;-72
2022/04/16 06:05:46;;;;;;;10.33;9.23;;;;;;;;;;781285;76;26474;-73
2022/04/16 06:06:49;;;;;;;14.00;10.77;;;;;;;;;;781710;76;26357;-72
2022/04/16 06:07:54;;;;;;;12.23;10.97;;;;;;;;;;780394;76;26880;-74
2022/04/16 06:10:55;;;;;;;10.30;9.03;;;;;;;;;;772939;77;26776;-72
2022/04/16 06:12:04;;;;;;;9.90;9.00;;;;;;;;;;772222;77;26929;-72
2022/04/16 06:13:07;;;;;;;10.13;8.30;;;;;;;;;;772219;77;26963;-70
2022/04/16 06:14:09;;;;;;;9.53;8.73;;;;;;;;;;772266;77;26531;-71
2022/04/16 06:15:12;;;;;;;8.70;7.80;;;;;;;;;;772263;77;26603;-71
2022/04/16 06:16:15;;;;;;;8.90;8.07;;;;;;;;;;772357;77;26651;-71
2022/04/16 06:17:19;;;;;;;9.40;8.50;;;;;;;;;;772316;77;26979;-71
2022/04/16 06:21:44;;;;;;;9.20;8.30;;;;;;;;;;775774;76;26486;-67
2022/04/16 06:22:47;;;;;;;9.53;8.60;;;;;;;;;;775398;76;26992;-70
2022/04/16 06:23:51;;;;;;;11.50;8.90;;;;;;;;;;775149;76;26588;-69
2022/04/16 06:24:54;;;;;;;10.77;7.83;;;;;;;;;;775040;76;26582;-70
2022/04/16 06:25:57;;;;;;;8.23;7.50;;;;;;;;;;775075;76;26634;-69
2022/04/16 06:27:00;;;;;;;7.77;7.07;;;;;;;;;;775082;76;27090;-69
2022/04/16 06:30:37;;;;;;;7.67;6.80;;;;;;;;;;775413;76;27032;-69
2022/04/16 06:31:41;;;;;;;8.03;7.23;;;;;;;;;;727852;81;27202;-70
2022/04/16 06:32:43;;;;;;;7.90;7.10;;;;;;;;;;747937;79;26787;-70
2022/04/16 06:33:46;;;;;;;9.73;7.57;;;;;;;;;;733718;81;26831;-68
2022/04/16 06:34:49;;;;;;;8.00;7.27;;;;;;;;;;733698;81;27247;-70
2022/04/16 06:35:52;;;;;;;7.97;7.17;;;;;;;;;;747132;79;27422;-72
2022/04/16 06:36:56;;;;;;;8.07;7.37;;;;;;;;;;747347;79;27169;-70
2022/04/16 06:37:59;;;;;;;11.03;7.30;;;;;;;;;;747267;79;27261;-69
2022/04/16 06:41:36;;;;;;;9.37;7.60;;;;;;;;;;781091;76;26871;-72
2022/04/16 06:42:40;;;;;;;10.73;8.70;;;;;;;;;;781250;76;26745;-71
2022/04/16 06:43:42;;;;;;;11.23;8.10;;;;;;;;;;781275;76;26930;-68
2022/04/16 06:44:45;;;;;;;9.53;8.10;;;;;;;;;;781278;76;26741;-69
2022/04/16 06:45:51;;;;;;;12.07;8.93;;;;;;;;;;781230;76;26835;-70
2022/04/16 06:46:58;;;;;;;9.03;8.23;;;;;;;;;;781272;76;26917;-69
2022/04/16 06:56:50;;;;;;;7.73;7.03;;;;;;;;;;774351;76;26973;-69
2022/04/16 06:57:53;;;;;;;8.70;7.80;;;;;;;;;;774414;76;27036;-69
2022/04/16 06:58:57;;;;;;;8.33;7.50;;;;;;;;;;774398;76;27049;-67
2022/04/16 07:00:01;;;;;;;8.03;7.23;;;;;;;;;;774407;76;27012;-70
2022/04/16 07:01:05;;;;;;;8.20;7.40;;;;;;;;;;774271;76;26966;-69
2022/04/16 07:02:08;;;;;;;8.37;7.43;;;;;;;;;;774461;76;27434;-70
2022/04/16 07:03:13;;;;;;;9.00;8.10;;;;;;;;;;774385;76;27029;-68
2022/04/16 07:04:16;;;;;;;8.67;7.80;;;;;;;;;;774351;76;27088;-70
2022/04/16 07:05:19;;;;;;;8.73;7.80;;;;;;;;;;774396;76;27503;-70
2022/04/16 07:06:24;;;;;;;8.97;7.80;;;;;;;;;;774330;76;26969;-69
2022/04/16 07:07:29;;;;;;;9.40;8.40;;;;;;;;;;774743;76;27405;-71
2022/04/16 07:10:48;;;;;;;8.87;7.97;;;;;;;;;;775469;76;26880;-70
2022/04/16 07:11:51;;;;;;;9.40;8.17;;;;;;;;;;758827;78;27078;-69
2022/04/16 07:12:57;;;;;;;9.70;8.70;;;;;;;;;;760241;77;26965;-69
2022/04/16 07:14:01;;;;;;;8.63;7.93;;;;;;;;;;759424;78;26955;-69
2022/04/16 07:15:11;;;;;;;8.80;8.00;;;;;;;;;;766114;77;27012;-70
2022/04/16 07:16:10;;;;;;;10.93;8.87;;;;;;;;;;745701;79;27482;-71
2022/04/16 07:17:15;;;;;;;9.13;8.13;;;;;;;;;;763633;77;27371;-71
2022/04/16 07:20:28;;;;;;;9.27;8.47;;;;;;;;;;784617;75;26968;-69
2022/04/16 07:21:32;;;;;;;10.57;8.73;;;;;;;;;;770447;76;26935;-69
2022/04/16 07:22:37;;;;;;;9.53;8.63;;;;;;;;;;771265;75;26988;-69
2022/04/16 07:23:41;;;;;;;9.40;8.50;;;;;;;;;;783236;75;27006;-70
2022/04/16 07:24:49;;;;;;;9.70;8.70;;;;;;;;;;785093;75;26927;-69
2022/04/16 07:25:53;;;;;;;11.43;9.17;;;;;;;;;;784959;75;26972;-69
2022/04/16 07:30:38;;;;;;;10.17;8.90;;;;;;;;;;776182;76;26986;-69
2022/04/16 07:31:41;;;;;;;10.00;9.10;;;;;;;;;;761964;78;26875;-69
2022/04/16 07:32:48;;;;;;;9.87;8.97;;;;;;;;;;775653;76;26919;-70
2022/04/16 07:33:53;;;;;;;13.37;8.43;;;;;;;;;;763356;78;26948;-69
2022/04/16 07:34:56;;;;;;;11.10;8.77;;;;;;;;;;778088;76;26988;-69
2022/04/16 07:36:00;;;;;;;10.30;8.80;;;;;;;;;;775745;76;26918;-70
2022/04/16 07:37:03;;;;;;;10.10;9.20;;;;;;;;;;775716;76;26913;-69
2022/04/16 07:46:00;;;;;;;10.20;9.30;;;;;;;;;;783774;75;26859;-70
2022/04/16 07:47:04;;;;;;;13.07;9.60;;;;;;;;;;783788;75;27378;-70
2022/04/16 07:51:51;;;;;;;13.60;9.47;;;;;;;;;;770511;77;26901;-69
2022/04/16 07:52:54;;;;;;;13.03;9.37;;;;;;;;;;770486;77;27428;-70
2022/04/16 07:54:00;;;;;;;13.70;10.57;;;;;;;;;;770501;77;26948;-71
2022/04/16 07:55:03;;;;;;;16.17;10.13;;;;;;;;;;759708;78;27434;-69
2022/04/16 07:56:06;;;;;;;13.87;9.93;;;;;;;;;;754518;77;27049;-69
2022/04/16 07:57:13;;;;;;;10.17;9.17;;;;;;;;;;771688;76;26988;-69
2022/04/16 08:01:59;;;;;;;9.83;8.80;;;;;;;;;;783530;75;27297;-71
2022/04/16 08:03:03;;;;;;;10.43;9.53;;;;;;;;;;783489;75;26929;-69
2022/04/16 08:04:06;;;;;;;10.33;9.33;;;;;;;;;;783487;75;27416;-69
2022/04/16 08:05:13;;;;;;;10.33;9.30;;;;;;;;;;783647;75;27008;-72
2022/04/16 08:06:16;;;;;;;10.67;9.10;;;;;;;;;;783524;75;26931;-70
2022/04/16 08:07:19;;;;;;;9.87;8.97;;;;;;;;;;783580;75;26943;-70
2022/04/16 08:10:37;;;;;;;9.17;8.27;;;;;;;;;;783799;75;26847;-70
2022/04/16 08:11:40;;;;;;;14.20;9.00;;;;;;;;;;805081;73;27389;-70
2022/04/16 08:12:44;;;;;;;9.23;8.33;;;;;;;;;;790452;75;26846;-70
2022/04/16 08:13:47;;;;;;;11.60;8.87;;;;;;;;;;790431;75;26901;-71
2022/04/16 08:14:50;;;;;;;10.70;8.90;;;;;;;;;;790389;75;27386;-70
2022/04/16 08:15:53;;;;;;;9.80;8.90;;;;;;;;;;790444;75;27283;-71
2022/04/16 08:16:57;;;;;;;10.50;8.67;;;;;;;;;;790470;75;26912;-72
2022/04/16 08:21:42;;;;;;;15.87;8.97;;;;;;;;;;799254;74;27327;-70
2022/04/16 08:22:46;;;;;;;10.80;8.30;;;;;;;;;;799193;74;26917;-70
2022/04/16 08:24:03;;;;;;;9.90;8.90;;;;;;;;;;799400;74;27000;-70
2022/04/16 08:29:42;;;;;;;11.53;8.20;;;;;;;;;;761931;77;26934;-72
2022/04/16 08:30:45;;;;;;;11.00;8.93;;;;;;;;;;782801;75;26928;-70
2022/04/16 08:31:47;;;;;;;10.00;9.00;;;;;;;;;;782563;76;26932;-72
2022/04/16 08:32:52;;;;;;;9.57;8.67;;;;;;;;;;778253;76;26986;-70
2022/04/16 08:33:55;;;;;;;10.17;9.27;;;;;;;;;;782422;76;26984;-72
2022/04/16 08:34:58;;;;;;;10.20;9.30;;;;;;;;;;782356;76;26928;-71
2022/04/16 08:36:01;;;;;;;10.47;9.47;;;;;;;;;;781957;76;27412;-71
2022/04/16 08:37:03;;;;;;;9.70;8.77;;;;;;;;;;782255;76;26982;-71
2022/04/16 08:42:00;;;;;;;11.20;8.57;;;;;;;;;;738357;80;27400;-72
2022/04/16 08:43:04;;;;;;;11.40;8.97;;;;;;;;;;738298;80;27452;-71
2022/04/16 08:44:07;;;;;;;10.13;8.20;;;;;;;;;;766601;77;27026;-70
2022/04/16 08:45:10;;;;;;;9.30;8.40;;;;;;;;;;766532;77;26983;-71
2022/04/16 08:46:16;;;;;;;9.00;8.10;;;;;;;;;;766572;77;27392;-72
2022/04/16 08:50:19;;;;;;;8.20;7.50;;;;;;;;;;767565;77;27478;-71
2022/04/16 08:51:22;;;;;;;8.80;7.20;;;;;;;;;;767440;77;27443;-72
2022/04/16 08:52:28;;;;;;;8.47;7.67;;;;;;;;;;766520;77;26955;-71
2022/04/16 08:53:31;;;;;;;8.20;7.40;;;;;;;;;;767659;77;26950;-71
2022/04/16 08:54:34;;;;;;;8.57;7.77;;;;;;;;;;767646;77;27385;-71
2022/04/16 08:55:37;;;;;;;11.20;7.70;;;;;;;;;;767157;77;26940;-72
2022/04/16 08:56:40;;;;;;;9.73;8.33;;;;;;;;;;766990;77;26937;-72
2022/04/16 08:59:46;;;;;;;9.10;8.20;;;;;;;;;;767526;77;26884;-71
2022/04/16 09:00:49;;;;;;;8.13;7.20;;;;;;;;;;766076;77;27019;-71
2022/04/16 09:01:52;;;;;;;10.43;7.33;;;;;;;;;;766078;77;27489;-71
2022/04/16 09:02:56;;;;;;;8.57;7.70;;;;;;;;;;766203;77;27063;-71
2022/04/16 09:03:59;;;;;;;10.23;6.97;;;;;;;;;;766086;77;27026;-72
2022/04/16 09:05:04;;;;;;;9.13;7.47;;;;;;;;;;766169;77;27422;-71
2022/04/16 09:06:07;;;;;;;9.53;7.03;;;;;;;;;;766316;77;26960;-71
2022/04/16 09:11:04;;;;;;;8.13;7.33;;;;;;;;;;777825;76;26858;-71
2022/04/16 09:12:17;;;;;;;10.70;7.03;;;;;;;;;;776819;76;26930;-71
2022/04/16 09:13:21;;;;;;;8.10;7.40;;;;;;;;;;776824;76;26966;-71
2022/04/16 09:14:37;;;;;;;8.27;7.60;;;;;;;;;;776789;76;26918;-73
2022/04/16 09:15:43;;;;;;;8.43;7.63;;;;;;;;;;776818;76;27383;-71
2022/04/16 09:16:46;;;;;;;8.50;7.50;;;;;;;;;;776911;76;26922;-70
2022/04/16 09:21:20;;;;;;;7.60;7.00;;;;;;;;;;779777;76;26992;-71
2022/04/16 09:22:30;;;;;;;11.00;7.13;;;;;;;;;;779457;76;26999;-70
2022/04/16 09:23:33;;;;;;;8.47;7.57;;;;;;;;;;779807;76;27462;-71
2022/04/16 09:24:47;;;;;;;8.00;7.30;;;;;;;;;;779643;76;26913;-70
2022/04/16 09:25:50;;;;;;;8.13;7.33;;;;;;;;;;779750;76;26925;-73
2022/04/16 09:26:53;;;;;;;8.07;7.30;;;;;;;;;;779713;76;26940;-72
2022/04/16 09:29:43;;;;;;;11.87;10.73;;;;;;;;;;775800;76;26883;-72
2022/04/16 09:30:53;;;;;;;23.60;20.50;;;;;;;;;;775792;76;26980;-73
2022/04/16 09:31:56;;;;;;;23.73;20.23;;;;;;;;;;775793;76;26931;-71
2022/04/16 09:33:01;;;;;;;19.30;15.30;;;;;;;;;;775781;76;27418;-75
2022/04/16 09:34:04;;;;;;;13.33;11.00;;;;;;;;;;775776;76;26999;-71
2022/04/16 09:35:07;;;;;;;9.40;8.50;;;;;;;;;;775720;76;27457;-71
2022/04/16 09:36:14;;;;;;;8.73;7.80;;;;;;;;;;780462;75;26921;-71
2022/04/16 09:37:16;;;;;;;11.17;7.77;;;;;;;;;;774334;76;26931;-71
2022/04/16 09:39:46;;;;;;;10.57;7.80;;;;;;;;;;801248;74;27421;-71
2022/04/16 09:40:49;;;;;;;8.07;7.47;;;;;;;;;;801118;74;26913;-71
2022/04/16 09:41:53;;;;;;;8.57;7.53;;;;;;;;;;801144;74;26996;-71
2022/04/16 09:42:57;;;;;;;7.87;7.20;;;;;;;;;;801078;74;26916;-71
2022/04/16 09:43:59;;;;;;;9.90;7.90;;;;;;;;;;801190;74;27394;-70
2022/04/16 09:45:03;;;;;;;8.20;7.40;;;;;;;;;;801195;74;26916;-71
2022/04/16 09:46:08;;;;;;;8.07;7.37;;;;;;;;;;799542;74;26918;-71
2022/04/16 09:47:11;;;;;;;7.33;6.80;;;;;;;;;;800387;74;26978;-70
2022/04/16 09:48:33;;;;;;;9.73;8.93;;;;;;;;;;801513;74;26886;-72
2022/04/16 09:49:37;;;;;;;10.27;9.20;;;;;;;;;;761063;78;27360;-71
2022/04/16 09:50:44;;;;;;;8.73;7.93;;;;;;;;;;740472;79;27460;-72
2022/04/16 09:51:48;;;;;;;9.03;8.13;;;;;;;;;;754092;78;27011;-71
2022/04/16 09:52:55;;;;;;;9.37;8.57;;;;;;;;;;736085;80;27007;-73
2022/04/16 09:54:01;;;;;;;9.20;8.40;;;;;;;;;;754027;77;27118;-72
2022/04/16 09:55:06;;;;;;;8.60;7.80;;;;;;;;;;740219;80;26978;-71
2022/04/16 09:56:11;;;;;;;8.73;8.03;;;;;;;;;;761454;77;27404;-71
2022/04/16 09:59:30;;;;;;;11.20;7.60;;;;;;;;;;761463;77;26905;-71
2022/04/16 10:04:38;;;;;;;8.17;7.37;;;;;;;;;;755204;78;27378;-71
2022/04/16 10:05:43;;;;;;;12.43;7.50;;;;;;;;;;755135;78;27023;-72
2022/04/16 10:06:47;;;;;;;7.73;6.93;;;;;;;;;;755305;78;26972;-71
2022/04/16 10:13:05;;;;;;;13.43;7.60;;;;;;;;;;754718;78;26953;-71
2022/04/16 10:14:09;;;;;;;10.17;8.37;;;;;;;;;;754705;78;26960;-71
2022/04/16 10:15:16;;;;;;;8.20;7.40;;;;;;;;;;754483;78;27445;-71
2022/04/16 10:16:20;;;;;;;8.93;8.17;;;;;;;;;;754516;78;27435;-72
2022/04/16 10:19:29;;;;;;;8.67;7.40;;;;;;;;;;756281;78;27012;-71
2022/04/16 10:20:32;;;;;;;11.97;8.17;;;;;;;;;;730225;80;26996;-71
2022/04/16 10:21:34;;;;;;;11.20;7.70;;;;;;;;;;742116;80;27462;-73
2022/04/16 10:22:39;;;;;;;9.00;8.10;;;;;;;;;;725769;79;27150;-71
2022/04/16 10:23:41;;;;;;;8.50;7.60;;;;;;;;;;715029;81;27203;-71
2022/04/16 10:28:46;;;;;;;8.10;7.30;;;;;;;;;;731765;80;27015;-71
2022/04/16 10:29:51;;;;;;;8.63;7.80;;;;;;;;;;760718;78;27011;-71
2022/04/16 10:30:54;;;;;;;9.73;8.73;;;;;;;;;;757629;77;27447;-71
2022/04/16 10:31:57;;;;;;;9.63;7.80;;;;;;;;;;752322;79;27049;-71